createdAt,value
2023-05-24T00:00:41.147Z,3.80
2023-05-24T00:03:09.396Z,3.93
2023-05-24T00:05:38.087Z,3.90
2023-05-24T00:08:06.011Z,4.20
2023-05-24T00:10:33.932Z,3.60
2023-05-24T00:13:01.911Z,3.90
2023-05-24T00:15:31.239Z,4.07
2023-05-24T00:17:59.171Z,3.60
2023-05-24T00:20:27.241Z,3.50
2023-05-24T00:22:55.208Z,3.83
2023-05-24T00:25:23.111Z,3.80
2023-05-24T00:27:51.011Z,4.17
2023-05-24T00:30:19.031Z,3.80
2023-05-24T00:32:48.341Z,3.97
2023-05-24T00:35:16.331Z,3.20
2023-05-24T00:37:45.380Z,3.97
2023-05-24T00:40:13.904Z,3.70
2023-05-24T00:42:41.764Z,3.87
2023-05-24T00:45:10.698Z,3.80
2023-05-24T00:47:38.669Z,3.57
2023-05-24T00:50:09.315Z,4.10
2023-05-24T00:52:37.458Z,4.07
2023-05-24T00:55:06.107Z,3.70
2023-05-24T00:57:34.162Z,3.73
2023-05-24T01:00:02.075Z,3.87
2023-05-24T01:02:30.808Z,4.07
2023-05-24T01:05:00.013Z,3.90
2023-05-24T01:07:41.824Z,4.00
2023-05-24T01:10:15.533Z,4.10
2023-05-24T01:12:54.911Z,3.93
2023-05-24T01:15:26.663Z,3.80
2023-05-24T01:18:02.292Z,3.73
2023-05-24T01:20:31.704Z,3.80
2023-05-24T01:23:14.723Z,3.70
2023-05-24T01:25:48.348Z,3.50
2023-05-24T01:28:19.818Z,3.70
2023-05-24T01:30:47.961Z,3.87
2023-05-24T01:33:15.795Z,3.50
2023-05-24T01:35:43.674Z,3.37
2023-05-24T01:38:12.238Z,3.93
2023-05-24T01:40:41.288Z,4.00
2023-05-24T01:43:18.094Z,3.63
2023-05-24T01:45:51.008Z,3.57
2023-05-24T01:48:25.890Z,3.77
2023-05-24T01:50:55.740Z,3.60
2023-05-24T01:53:26.298Z,3.60
2023-05-24T01:55:56.526Z,3.23
2023-05-24T01:58:26.826Z,3.57
2023-05-24T02:00:55.018Z,3.30
2023-05-24T02:03:23.046Z,3.37
2023-05-24T02:05:50.986Z,3.10
2023-05-24T02:08:19.108Z,2.90
2023-05-24T02:10:47.018Z,3.03
2023-05-24T02:13:16.340Z,2.90
2023-05-24T02:15:45.717Z,3.10
2023-05-24T02:18:14.147Z,2.97
2023-05-24T02:20:42.386Z,2.97
2023-05-24T02:23:10.481Z,3.20
2023-05-24T02:25:38.394Z,2.80
2023-05-24T02:28:06.494Z,3.30
2023-05-24T02:30:34.325Z,3.37
2023-05-24T02:33:03.608Z,3.27
2023-05-24T02:35:33.144Z,3.17
2023-05-24T02:38:01.620Z,3.40
2023-05-24T02:40:29.533Z,3.27
2023-05-24T02:42:57.378Z,3.17
2023-05-24T02:45:25.242Z,3.70
2023-05-24T02:47:53.187Z,3.80
2023-05-24T02:50:22.383Z,3.20
2023-05-24T02:52:50.225Z,3.10
2023-05-24T02:55:18.269Z,3.30
2023-05-24T02:57:48.167Z,3.43
2023-05-24T03:00:16.804Z,3.70
2023-05-24T03:02:44.713Z,3.50
2023-05-24T03:05:12.647Z,3.50
2023-05-24T03:07:42.438Z,3.23
2023-05-24T03:10:10.938Z,3.43
2023-05-24T03:12:38.796Z,3.80
2023-05-24T03:15:07.910Z,3.53
2023-05-24T03:17:35.833Z,3.27
2023-05-24T03:20:05.850Z,3.50
2023-05-24T03:22:34.045Z,3.60
2023-05-24T03:25:03.262Z,3.20
2023-05-24T03:27:31.063Z,3.20
2023-05-24T03:29:58.946Z,3.50
2023-05-24T03:32:26.823Z,3.67
2023-05-24T03:34:55.631Z,3.50
2023-05-24T03:37:23.561Z,3.30
2023-05-24T03:39:51.406Z,3.60
2023-05-24T03:42:21.187Z,3.20
2023-05-24T03:44:49.046Z,3.60
2023-05-24T03:47:17.141Z,3.20
2023-05-24T03:49:45.049Z,3.40
2023-05-24T03:52:13.075Z,3.67
2023-05-24T03:54:40.907Z,3.70
2023-05-24T03:57:09.135Z,3.60
2023-05-24T03:59:39.788Z,3.90
2023-05-24T04:02:09.007Z,4.07
2023-05-24T04:04:37.502Z,4.03
2023-05-24T04:07:05.857Z,3.80
2023-05-24T04:09:33.702Z,4.27
2023-05-24T04:12:02.208Z,3.90
2023-05-24T04:14:30.220Z,4.33
2023-05-24T04:16:59.564Z,3.60
2023-05-24T04:19:27.471Z,3.67
2023-05-24T04:21:55.320Z,3.63
2023-05-24T04:24:23.190Z,3.77
2023-05-24T04:26:51.701Z,3.73
2023-05-24T04:29:19.953Z,3.70
2023-05-24T04:31:49.011Z,3.67
2023-05-24T04:34:18.545Z,3.80
2023-05-24T04:36:47.643Z,3.40
2023-05-24T04:39:15.847Z,4.30
2023-05-24T04:41:43.750Z,3.90
2023-05-24T04:44:11.582Z,3.80
2023-05-24T04:46:39.488Z,3.77
2023-05-24T04:49:08.745Z,3.80
2023-05-24T04:51:38.800Z,3.73
2023-05-24T04:54:09.083Z,3.53
2023-05-24T04:56:38.617Z,4.13
2023-05-24T04:59:06.985Z,4.23
2023-05-24T05:01:35.281Z,4.53
2023-05-24T05:04:05.837Z,4.40
2023-05-24T05:06:38.547Z,4.47
2023-05-24T05:09:09.606Z,5.33
2023-05-24T05:11:37.633Z,5.10
2023-05-24T05:14:06.252Z,4.87
2023-05-24T05:16:34.202Z,4.70
2023-05-24T05:19:04.620Z,5.07
2023-05-24T05:21:33.973Z,5.23
2023-05-24T05:24:02.329Z,5.13
2023-05-24T05:26:31.918Z,5.50
2023-05-24T05:28:59.836Z,5.43
2023-05-24T05:31:27.788Z,5.83
2023-05-24T05:33:55.629Z,5.23
2023-05-24T05:36:23.556Z,5.67
2023-05-24T05:38:51.456Z,5.70
2023-05-24T05:41:19.374Z,5.53
2023-05-24T05:43:48.636Z,5.43
2023-05-24T05:46:16.592Z,5.60
2023-05-24T05:48:46.457Z,5.07
2023-05-24T05:51:16.634Z,4.67
2023-05-24T05:53:44.572Z,4.67
2023-05-24T05:56:12.681Z,4.33
2023-05-24T05:58:40.566Z,4.50
2023-05-24T06:01:09.859Z,4.33
2023-05-24T06:03:37.874Z,4.00
2023-05-24T06:06:06.264Z,4.20
2023-05-24T06:08:35.292Z,4.20
2023-05-24T06:11:03.420Z,3.90
2023-05-24T06:13:33.054Z,4.03
2023-05-24T06:16:01.361Z,4.13
2023-05-24T06:18:32.612Z,4.30
2023-05-24T06:21:00.918Z,4.37
2023-05-24T06:23:29.045Z,4.47
2023-05-24T06:25:57.200Z,4.10
2023-05-24T06:28:25.092Z,4.23
2023-05-24T06:30:53.025Z,4.13
2023-05-24T06:33:21.590Z,4.23
2023-05-24T06:35:51.010Z,4.50
2023-05-24T06:38:18.938Z,4.77
2023-05-24T06:40:46.839Z,4.70
2023-05-24T06:43:14.768Z,4.90
2023-05-24T06:45:42.666Z,5.30
2023-05-24T06:48:10.589Z,4.93
2023-05-24T06:50:41.613Z,4.60
2023-05-24T06:53:11.900Z,4.90
2023-05-24T06:55:39.786Z,4.60
2023-05-24T06:58:08.344Z,5.00
2023-05-24T07:00:36.256Z,4.67
2023-05-24T07:03:04.918Z,5.30
2023-05-24T07:05:32.853Z,5.10
2023-05-24T07:08:00.760Z,5.20
2023-05-24T07:10:30.117Z,5.33
2023-05-24T07:12:57.973Z,5.63
2023-05-24T07:15:25.831Z,5.80
2023-05-24T07:17:54.859Z,5.10
2023-05-24T07:20:22.859Z,5.57
2023-05-24T07:22:50.957Z,5.77
2023-05-24T07:25:18.825Z,5.67
2023-05-24T07:27:48.077Z,5.67
2023-05-24T07:30:31.133Z,5.83
2023-05-24T07:33:00.379Z,6.20
2023-05-24T07:35:29.460Z,6.30
2023-05-24T07:37:57.488Z,6.20
2023-05-24T07:40:25.355Z,6.00
2023-05-24T07:42:54.554Z,6.00
2023-05-24T07:45:23.039Z,5.93
2023-05-24T07:47:51.054Z,5.57
2023-05-24T07:50:19.820Z,5.90
2023-05-24T07:52:47.808Z,5.33
2023-05-24T07:55:16.019Z,5.17
2023-05-24T07:57:44.191Z,5.27
2023-05-24T08:00:15.401Z,5.03
2023-05-24T08:02:44.311Z,5.10
2023-05-24T08:05:14.036Z,4.73
2023-05-24T08:07:42.236Z,5.13
2023-05-24T08:10:12.700Z,5.10
2023-05-24T08:12:40.705Z,5.17
2023-05-24T08:15:09.687Z,5.10
2023-05-24T08:17:39.540Z,5.00
2023-05-24T08:20:09.892Z,4.90
2023-05-24T08:22:38.294Z,4.90
2023-05-24T08:25:07.267Z,4.97
2023-05-24T08:27:35.192Z,4.13
2023-05-24T08:30:04.341Z,4.57
2023-05-24T08:32:33.350Z,4.37
2023-05-24T08:35:14.821Z,4.60
2023-05-24T08:37:48.128Z,4.53
2023-05-24T08:40:16.488Z,4.70
2023-05-24T08:42:44.449Z,4.83
2023-05-24T08:45:14.743Z,4.63
2023-05-24T08:47:43.498Z,5.13
2023-05-24T08:50:15.482Z,4.80
2023-05-24T08:52:43.879Z,4.60
2023-05-24T08:55:12.488Z,4.40
2023-05-24T08:57:41.722Z,4.43
2023-05-24T09:00:11.808Z,4.30
2023-05-24T09:02:40.483Z,4.87
2023-05-24T09:05:12.670Z,4.43
2023-05-24T09:07:41.849Z,4.77
2023-05-24T09:10:11.765Z,4.20
2023-05-24T09:12:41.728Z,4.70
2023-05-24T09:15:10.145Z,4.70
2023-05-24T09:17:38.936Z,4.50
2023-05-24T09:20:10.522Z,4.47
2023-05-24T09:22:42.997Z,4.43
2023-05-24T09:25:11.909Z,4.83
2023-05-24T09:27:40.200Z,4.77
2023-05-24T09:30:10.813Z,4.33
2023-05-24T09:32:40.435Z,4.50
2023-05-24T09:35:10.872Z,4.40
2023-05-24T09:37:40.548Z,4.30
2023-05-24T09:40:12.985Z,4.77
2023-05-24T09:42:40.923Z,4.37
2023-05-24T09:45:10.772Z,4.30
2023-05-24T09:47:40.379Z,4.40
2023-05-24T09:50:14.273Z,4.80
2023-05-24T09:52:43.823Z,4.73
2023-05-24T09:55:15.616Z,4.70
2023-05-24T09:57:45.255Z,4.77
2023-05-24T10:00:17.837Z,5.10
2023-05-24T10:02:53.456Z,5.10
2023-05-24T10:05:22.368Z,5.23
2023-05-24T10:07:52.221Z,4.90
2023-05-24T10:10:20.419Z,5.20
2023-05-24T10:12:48.472Z,5.37
2023-05-24T10:15:16.815Z,5.23
2023-05-24T10:17:44.693Z,5.40
2023-05-24T10:20:13.440Z,5.00
2023-05-24T10:22:44.267Z,5.50
2023-05-24T10:25:17.103Z,5.60
2023-05-24T10:27:45.906Z,5.60
2023-05-24T10:30:18.158Z,5.17
2023-05-24T10:32:47.039Z,5.37
2023-05-24T10:35:16.246Z,5.37
2023-05-24T10:37:44.177Z,5.10
2023-05-24T10:40:20.152Z,5.63
2023-05-24T10:42:48.991Z,5.40
2023-05-24T10:45:35.721Z,5.20
2023-05-24T10:48:11.368Z,5.63
2023-05-24T10:50:39.314Z,5.57
2023-05-24T10:53:14.209Z,5.80
2023-05-24T10:55:57.364Z,5.80
2023-05-24T10:58:30.663Z,6.10
2023-05-24T11:00:58.652Z,5.77
2023-05-24T11:03:26.629Z,6.17
2023-05-24T11:05:55.621Z,5.63
2023-05-24T11:08:27.584Z,5.43
2023-05-24T11:11:23.373Z,5.50
2023-05-24T11:13:57.848Z,5.90
2023-05-24T11:16:36.633Z,6.57
2023-05-24T11:19:13.518Z,6.40
2023-05-24T11:21:42.187Z,6.23
2023-05-24T11:24:10.662Z,6.23
2023-05-24T11:26:40.249Z,5.90
2023-05-24T11:29:09.100Z,6.10
2023-05-24T11:31:43.166Z,5.57
2023-05-24T11:34:12.040Z,5.43
2023-05-24T11:36:40.065Z,5.33
2023-05-24T11:39:09.695Z,5.67
2023-05-24T11:41:40.285Z,4.67
2023-05-24T11:44:09.817Z,5.10
2023-05-24T11:46:39.264Z,4.93
2023-05-24T11:49:08.271Z,4.80
2023-05-24T11:51:37.668Z,5.07
2023-05-24T11:54:05.691Z,5.03
2023-05-24T11:56:34.384Z,5.07
2023-05-24T11:59:11.068Z,4.80
2023-05-24T12:01:39.308Z,4.73
2023-05-24T12:04:08.971Z,4.60
2023-05-24T12:06:39.534Z,4.60
2023-05-24T12:09:11.828Z,4.30
2023-05-24T12:11:40.911Z,4.37
2023-05-24T12:14:13.675Z,3.90
2023-05-24T12:16:41.701Z,4.30
2023-05-24T12:19:14.191Z,4.27
2023-05-24T12:21:50.115Z,4.13
2023-05-24T12:24:19.500Z,4.37
2023-05-24T12:26:49.307Z,4.13
2023-05-24T12:29:20.641Z,4.10
2023-05-24T12:31:49.886Z,3.67
2023-05-24T12:34:19.993Z,4.00
2023-05-24T12:36:49.940Z,3.90
2023-05-24T12:39:19.668Z,4.13
2023-05-24T12:41:52.085Z,3.93
2023-05-24T12:44:25.268Z,3.90
2023-05-24T12:46:54.576Z,3.90
2023-05-24T12:49:22.891Z,3.77
2023-05-24T12:51:50.903Z,3.80
2023-05-24T12:54:20.752Z,3.40
2023-05-24T12:56:48.695Z,3.67
2023-05-24T12:59:16.573Z,3.43
2023-05-24T13:01:50.682Z,3.40
2023-05-24T13:04:18.582Z,3.70
2023-05-24T13:06:46.516Z,3.20
2023-05-24T13:09:14.709Z,3.27
2023-05-24T13:11:42.651Z,3.23
2023-05-24T13:14:11.505Z,3.40
2023-05-24T13:16:39.537Z,3.20
2023-05-24T13:19:08.838Z,3.43
2023-05-24T13:21:36.774Z,3.40
2023-05-24T13:24:05.565Z,3.27
2023-05-24T13:26:37.199Z,3.23
2023-05-24T13:29:22.396Z,3.10
2023-05-24T13:31:53.302Z,3.27
2023-05-24T13:34:23.317Z,3.10
2023-05-24T13:36:51.300Z,3.30
2023-05-24T13:39:19.819Z,2.73
2023-05-24T13:41:47.728Z,3.27
2023-05-24T13:44:17.144Z,2.80
2023-05-24T13:46:45.623Z,3.27
2023-05-24T13:49:13.509Z,2.93
2023-05-24T13:51:42.729Z,3.20
2023-05-24T13:54:11.691Z,3.63
2023-05-24T13:56:40.097Z,3.37
2023-05-24T13:59:08.606Z,3.20
2023-05-24T14:01:37.830Z,3.27
2023-05-24T14:04:07.078Z,3.33
2023-05-24T14:06:35.354Z,3.20
2023-05-24T14:09:06.769Z,3.10
2023-05-24T14:11:34.645Z,3.30
2023-05-24T14:16:35.035Z,3.37
2023-05-24T14:19:03.060Z,3.60
2023-05-24T14:21:31.094Z,3.50
2023-05-24T14:23:58.968Z,3.57
2023-05-24T14:26:28.654Z,3.60
2023-05-24T14:28:57.074Z,3.80
2023-05-24T14:31:25.546Z,3.70
2023-05-24T14:33:53.450Z,3.70
2023-05-24T14:36:21.371Z,3.80
2023-05-24T14:38:49.273Z,3.33
2023-05-24T14:41:17.129Z,3.53
2023-05-24T14:43:46.414Z,3.53
2023-05-24T14:46:14.362Z,3.53
2023-05-24T14:48:42.530Z,3.47
2023-05-24T14:51:10.380Z,3.67
2023-05-24T14:53:38.174Z,3.40
2023-05-24T14:56:08.389Z,3.10
2023-05-24T14:58:36.243Z,3.40
2023-05-24T15:01:06.697Z,3.60
2023-05-24T15:03:34.818Z,3.33
2023-05-24T15:06:02.958Z,3.70
2023-05-24T15:08:30.870Z,3.63
2023-05-24T15:10:59.267Z,4.00
2023-05-24T15:13:27.398Z,4.40
2023-05-24T15:15:56.695Z,4.40
2023-05-24T15:18:28.055Z,4.20
2023-05-24T15:20:56.233Z,4.17
2023-05-24T15:23:25.467Z,4.20
2023-05-24T15:25:53.370Z,4.40
2023-05-24T15:28:21.261Z,4.80
2023-05-24T15:30:49.279Z,5.00
2023-05-24T15:33:17.373Z,4.67
2023-05-24T15:35:46.736Z,4.77
2023-05-24T15:38:17.760Z,4.67
2023-05-24T15:40:46.267Z,4.40
2023-05-24T15:43:15.563Z,4.60
2023-05-24T15:45:44.047Z,4.77
2023-05-24T15:48:12.932Z,4.50
2023-05-24T15:53:13.182Z,4.83
2023-05-24T15:55:41.133Z,4.90
2023-05-24T15:58:08.999Z,4.70
2023-05-24T16:00:36.838Z,4.50
2023-05-24T16:03:05.233Z,4.40
2023-05-24T16:05:33.142Z,4.60
2023-05-24T16:08:02.600Z,4.27
2023-05-24T16:10:31.940Z,4.50
2023-05-24T16:12:59.794Z,4.60
2023-05-24T16:15:30.084Z,4.57
2023-05-24T16:17:58.238Z,4.40
2023-05-24T16:20:26.387Z,4.87
2023-05-24T16:22:54.558Z,4.90
2023-05-24T16:25:22.507Z,4.77
2023-05-24T16:27:51.741Z,4.93
2023-05-24T16:30:19.933Z,4.43
2023-05-24T16:32:47.803Z,4.87
2023-05-24T16:35:15.656Z,4.50
2023-05-24T16:37:43.655Z,4.50
2023-05-24T16:40:12.526Z,4.37
2023-05-24T16:42:40.455Z,4.77
2023-05-24T16:45:10.388Z,5.23
2023-05-24T16:47:38.437Z,5.23
2023-05-24T16:50:09.888Z,5.07
2023-05-24T16:52:37.728Z,4.80
2023-05-24T16:55:06.518Z,3.93
2023-05-24T16:57:34.379Z,4.50
2023-05-24T17:00:02.483Z,4.43
2023-05-24T17:02:31.860Z,3.93
2023-05-24T17:04:59.789Z,4.30
2023-05-24T17:07:27.804Z,4.17
2023-05-24T17:09:55.654Z,4.47
2023-05-24T17:12:23.582Z,4.53
2023-05-24T17:14:51.430Z,4.40
2023-05-24T17:17:19.278Z,3.97
2023-05-24T17:19:48.596Z,4.67
2023-05-24T17:22:16.431Z,4.40
2023-05-24T17:24:44.359Z,4.50
2023-05-24T17:27:12.276Z,5.03
2023-05-24T17:29:40.515Z,5.50
2023-05-24T17:32:09.771Z,5.70
2023-05-24T17:34:38.036Z,5.83
2023-05-24T17:37:07.461Z,5.00
2023-05-24T17:39:35.447Z,4.60
2023-05-24T17:42:03.349Z,4.23
2023-05-24T17:44:31.893Z,4.40
2023-05-24T17:47:00.274Z,4.50
2023-05-24T17:49:28.113Z,4.23
2023-05-24T17:51:56.039Z,4.03
2023-05-24T17:54:25.648Z,4.23
2023-05-24T17:56:53.497Z,3.90
2023-05-24T17:59:21.380Z,3.77
2023-05-24T18:01:49.599Z,3.77
2023-05-24T18:04:17.542Z,4.27
2023-05-24T18:06:45.738Z,3.80
2023-05-24T18:09:13.625Z,4.20
2023-05-24T18:11:42.916Z,4.00
2023-05-24T18:14:10.884Z,4.10
2023-05-24T18:16:38.885Z,4.10
2023-05-24T18:19:06.855Z,4.23
2023-05-24T18:21:34.735Z,4.03
2023-05-24T18:24:02.567Z,4.37
2023-05-24T18:26:30.437Z,3.97
2023-05-24T18:28:59.702Z,4.17
2023-05-24T18:31:27.532Z,4.20
2023-05-24T18:33:55.516Z,4.33
2023-05-24T18:36:23.460Z,4.20
2023-05-24T18:38:51.778Z,4.37
2023-05-24T18:41:19.647Z,4.10
2023-05-24T18:43:47.538Z,4.37
2023-05-24T18:46:17.909Z,4.40
2023-05-24T18:48:46.433Z,4.00
2023-05-24T18:51:14.823Z,4.10
2023-05-24T18:53:42.834Z,4.03
2023-05-24T18:56:10.756Z,4.03
2023-05-24T18:58:38.972Z,3.80
2023-05-24T19:01:06.891Z,4.30
2023-05-24T19:03:36.185Z,4.43
2023-05-24T19:06:04.066Z,4.50
2023-05-24T19:08:31.959Z,4.13
2023-05-24T19:10:59.929Z,4.43
2023-05-24T19:13:27.779Z,5.10
2023-05-24T19:15:55.650Z,5.00
2023-05-24T19:18:23.482Z,5.23
2023-05-24T19:20:53.021Z,5.00
2023-05-24T19:23:21.277Z,4.83
2023-05-24T19:25:50.426Z,5.53
2023-05-24T19:28:18.532Z,5.03
2023-05-24T19:30:46.435Z,4.57
2023-05-24T19:33:14.323Z,5.10
2023-05-24T19:35:42.398Z,5.33
2023-05-24T19:38:12.184Z,5.03
2023-05-24T19:40:40.034Z,5.17
2023-05-24T19:43:07.850Z,5.00
2023-05-24T19:45:35.730Z,4.90
2023-05-24T19:48:05.099Z,5.50
2023-05-24T19:50:33.005Z,5.20
2023-05-24T19:53:00.896Z,5.47
2023-05-24T19:55:30.287Z,5.00
2023-05-24T19:57:58.165Z,5.30
2023-05-24T20:00:26.052Z,5.30
2023-05-24T20:02:54.021Z,5.07
2023-05-24T20:05:22.358Z,5.07
2023-05-24T20:07:50.901Z,5.40
2023-05-24T20:10:18.798Z,5.70
2023-05-24T20:12:48.000Z,5.67
2023-05-24T20:15:17.046Z,5.73
2023-05-24T20:17:46.533Z,5.53
2023-05-24T20:20:14.838Z,5.93
2023-05-24T20:22:42.762Z,6.43
2023-05-24T20:25:10.921Z,6.03
2023-05-24T20:27:40.339Z,5.87
2023-05-24T20:30:10.864Z,5.60
2023-05-24T20:32:39.031Z,5.13
2023-05-24T20:35:07.826Z,5.50
2023-05-24T20:37:36.393Z,5.33
2023-05-24T20:40:05.385Z,5.10
2023-05-24T20:42:33.297Z,5.13
2023-05-24T20:45:01.226Z,5.20
2023-05-24T20:47:30.580Z,5.00
2023-05-24T20:49:58.730Z,4.80
2023-05-24T20:52:26.550Z,5.00
2023-05-24T20:54:54.446Z,4.90
2023-05-24T20:57:22.336Z,5.30
2023-05-24T20:59:50.168Z,4.90
2023-05-24T21:02:18.057Z,5.47
2023-05-24T21:04:48.355Z,5.90
2023-05-24T21:07:16.392Z,5.00
2023-05-24T21:09:44.314Z,4.93
2023-05-24T21:12:12.206Z,4.80
2023-05-24T21:14:40.094Z,4.83
2023-05-24T21:17:08.032Z,4.97
2023-05-24T21:19:35.966Z,5.07
2023-05-24T21:22:05.572Z,4.77
2023-05-24T21:24:33.397Z,5.03
2023-05-24T21:27:01.837Z,5.10
2023-05-24T21:29:29.705Z,5.07
2023-05-24T21:31:57.959Z,4.80
2023-05-24T21:34:26.733Z,5.00
2023-05-24T21:36:54.622Z,4.43
2023-05-24T21:39:23.842Z,5.20
2023-05-24T21:41:51.733Z,4.80
2023-05-24T21:44:19.658Z,4.80
2023-05-24T21:46:50.194Z,5.10
2023-05-24T21:49:19.037Z,5.30
2023-05-24T21:51:46.903Z,4.80
2023-05-24T21:54:15.165Z,5.53
2023-05-24T21:56:44.387Z,4.70
2023-05-24T21:59:12.254Z,5.20
2023-05-24T22:01:40.147Z,5.20
2023-05-24T22:04:08.121Z,5.57
2023-05-24T22:06:36.393Z,5.63
2023-05-24T22:09:04.277Z,5.70
2023-05-24T22:11:32.972Z,6.13
2023-05-24T22:14:02.229Z,5.17
2023-05-24T22:16:30.162Z,5.47
2023-05-24T22:18:58.082Z,5.77
2023-05-24T22:21:26.240Z,5.57
2023-05-24T22:23:54.098Z,5.43
2023-05-24T22:26:22.775Z,5.97
2023-05-24T22:28:54.903Z,5.67
2023-05-24T22:31:25.568Z,5.53
2023-05-24T22:33:53.490Z,5.60
2023-05-24T22:36:21.337Z,5.70
2023-05-24T22:38:49.180Z,5.47
2023-05-24T22:41:17.254Z,5.50
2023-05-24T22:43:45.177Z,5.10
2023-05-24T22:46:13.049Z,5.23
2023-05-24T22:48:42.267Z,5.93
2023-05-24T22:51:12.191Z,5.13
2023-05-24T22:53:40.138Z,5.40
2023-05-24T22:56:10.495Z,5.73
2023-05-24T22:58:38.494Z,5.80
2023-05-24T23:01:06.836Z,5.60
2023-05-24T23:03:34.787Z,6.03
2023-05-24T23:06:05.657Z,5.37
2023-05-24T23:08:33.837Z,5.33
2023-05-24T23:11:01.941Z,5.20
2023-05-24T23:13:34.248Z,5.47
2023-05-24T23:16:02.123Z,5.73
2023-05-24T23:18:30.086Z,5.63
2023-05-24T23:20:58.021Z,5.37
2023-05-24T23:23:27.737Z,5.83
2023-05-24T23:25:55.709Z,5.47
2023-05-24T23:28:23.609Z,5.20
2023-05-24T23:30:51.687Z,5.30
2023-05-24T23:33:19.610Z,5.57
2023-05-24T23:35:47.489Z,5.50
2023-05-24T23:38:15.516Z,5.27
2023-05-24T23:40:44.724Z,5.10
2023-05-24T23:43:12.578Z,5.20
2023-05-24T23:45:40.619Z,5.37
2023-05-24T23:48:08.581Z,5.60
2023-05-24T23:50:50.129Z,5.13
2023-05-24T23:53:21.662Z,5.47
2023-05-24T23:55:50.944Z,5.33
2023-05-24T23:58:18.795Z,5.13
